sensor_id;sensor_type;location;lat;lon;timestamp;pressure;altitude;pressure_sealevel;temperature;humidity
55460;BME280;41326;45.302;-122.946;2024-03-22T00:00:06;101184.11;;;17.42;60.86
55460;BME280;41326;45.302;-122.946;2024-03-22T00:02:35;101185.35;;;17.42;60.83
55460;BME280;41326;45.302;-122.946;2024-03-22T00:05:05;101181.81;;;17.42;60.84
55460;BME280;41326;45.302;-122.946;2024-03-22T00:07:35;101178.74;;;17.43;60.71
55460;BME280;41326;45.302;-122.946;2024-03-22T00:10:06;101179.10;;;17.39;60.70
55460;BME280;41326;45.302;-122.946;2024-03-22T00:12:35;101177.41;;;17.42;60.71
55460;BME280;41326;45.302;-122.946;2024-03-22T00:15:07;101176.91;;;17.43;60.71
55460;BME280;41326;45.302;-122.946;2024-03-22T00:17:36;101175.06;;;17.46;60.65
55460;BME280;41326;45.302;-122.946;2024-03-22T00:20:07;101172.91;;;17.48;60.46
55460;BME280;41326;45.302;-122.946;2024-03-22T00:22:37;101167.24;;;17.48;60.70
55460;BME280;41326;45.302;-122.946;2024-03-22T00:25:07;101169.28;;;17.52;60.76
55460;BME280;41326;45.302;-122.946;2024-03-22T00:27:37;101170.68;;;17.51;60.60
55460;BME280;41326;45.302;-122.946;2024-03-22T00:30:07;101173.82;;;17.47;60.73
55460;BME280;41326;45.302;-122.946;2024-03-22T00:32:37;101175.05;;;17.48;60.60
55460;BME280;41326;45.302;-122.946;2024-03-22T00:35:07;101169.97;;;17.46;60.96
55460;BME280;41326;45.302;-122.946;2024-03-22T00:37:37;101163.74;;;17.48;61.25
55460;BME280;41326;45.302;-122.946;2024-03-22T00:40:08;101159.09;;;17.48;61.60
55460;BME280;41326;45.302;-122.946;2024-03-22T00:42:37;101160.70;;;17.53;62.07
55460;BME280;41326;45.302;-122.946;2024-03-22T00:45:07;101161.68;;;17.56;62.74
55460;BME280;41326;45.302;-122.946;2024-03-22T00:47:37;101165.07;;;17.60;62.38
55460;BME280;41326;45.302;-122.946;2024-03-22T00:50:08;101163.72;;;17.69;62.37
55460;BME280;41326;45.302;-122.946;2024-03-22T00:52:37;101164.45;;;17.72;62.48
55460;BME280;41326;45.302;-122.946;2024-03-22T00:55:08;101162.41;;;17.77;62.06
55460;BME280;41326;45.302;-122.946;2024-03-22T00:57:38;101158.94;;;17.75;61.82
55460;BME280;41326;45.302;-122.946;2024-03-22T01:00:08;101156.73;;;17.80;62.00
55460;BME280;41326;45.302;-122.946;2024-03-22T01:02:38;101155.71;;;17.80;62.27
55460;BME280;41326;45.302;-122.946;2024-03-22T01:05:08;101153.49;;;17.82;62.05
55460;BME280;41326;45.302;-122.946;2024-03-22T01:07:38;101150.35;;;17.82;62.01
55460;BME280;41326;45.302;-122.946;2024-03-22T01:10:09;101144.91;;;17.83;61.79
55460;BME280;41326;45.302;-122.946;2024-03-22T01:12:38;101139.86;;;17.82;61.73
55460;BME280;41326;45.302;-122.946;2024-03-22T01:15:09;101141.17;;;17.82;61.62
55460;BME280;41326;45.302;-122.946;2024-03-22T01:17:39;101138.72;;;17.82;61.46
55460;BME280;41326;45.302;-122.946;2024-03-22T01:20:09;101132.87;;;17.78;61.34
55460;BME280;41326;45.302;-122.946;2024-03-22T01:22:39;101135.24;;;17.76;61.46
55460;BME280;41326;45.302;-122.946;2024-03-22T01:25:09;101134.78;;;17.73;61.45
55460;BME280;41326;45.302;-122.946;2024-03-22T01:27:39;101132.72;;;17.73;61.29
55460;BME280;41326;45.302;-122.946;2024-03-22T01:30:09;101129.52;;;17.69;61.39
55460;BME280;41326;45.302;-122.946;2024-03-22T01:32:39;101131.73;;;17.70;61.46
55460;BME280;41326;45.302;-122.946;2024-03-22T01:35:09;101134.37;;;17.71;61.19
55460;BME280;41326;45.302;-122.946;2024-03-22T01:37:39;101139.76;;;17.68;61.37
55460;BME280;41326;45.302;-122.946;2024-03-22T01:40:10;101145.61;;;17.67;61.29
55460;BME280;41326;45.302;-122.946;2024-03-22T01:42:39;101143.73;;;17.68;61.58
55460;BME280;41326;45.302;-122.946;2024-03-22T01:45:09;101144.24;;;17.68;61.08
55460;BME280;41326;45.302;-122.946;2024-03-22T01:47:39;101148.12;;;17.67;61.25
55460;BME280;41326;45.302;-122.946;2024-03-22T01:50:10;101149.19;;;17.67;60.93
55460;BME280;41326;45.302;-122.946;2024-03-22T01:52:40;101147.64;;;17.63;61.08
55460;BME280;41326;45.302;-122.946;2024-03-22T01:55:10;101148.84;;;17.64;60.95
55460;BME280;41326;45.302;-122.946;2024-03-22T01:57:40;101146.39;;;17.62;60.98
55460;BME280;41326;45.302;-122.946;2024-03-22T02:00:11;101147.04;;;17.60;61.36
55460;BME280;41326;45.302;-122.946;2024-03-22T02:02:40;101148.16;;;17.57;61.35
55460;BME280;41326;45.302;-122.946;2024-03-22T02:05:14;101146.53;;;17.57;61.27
55460;BME280;41326;45.302;-122.946;2024-03-22T02:07:40;101146.04;;;17.59;61.27
55460;BME280;41326;45.302;-122.946;2024-03-22T02:10:11;101146.14;;;17.58;61.39
55460;BME280;41326;45.302;-122.946;2024-03-22T02:12:41;101142.33;;;17.56;61.52
55460;BME280;41326;45.302;-122.946;2024-03-22T02:15:11;101141.74;;;17.57;61.52
55460;BME280;41326;45.302;-122.946;2024-03-22T02:17:40;101137.57;;;17.62;61.43
55460;BME280;41326;45.302;-122.946;2024-03-22T02:20:11;101128.16;;;17.63;61.43
55460;BME280;41326;45.302;-122.946;2024-03-22T02:22:41;101128.39;;;17.63;61.60
55460;BME280;41326;45.302;-122.946;2024-03-22T02:25:11;101128.95;;;17.63;61.64
55460;BME280;41326;45.302;-122.946;2024-03-22T02:27:42;101127.68;;;17.61;61.77
55460;BME280;41326;45.302;-122.946;2024-03-22T02:30:12;101127.42;;;17.59;61.82
55460;BME280;41326;45.302;-122.946;2024-03-22T02:32:41;101119.05;;;17.62;61.94
55460;BME280;41326;45.302;-122.946;2024-03-22T02:35:11;101117.69;;;17.62;62.14
55460;BME280;41326;45.302;-122.946;2024-03-22T02:37:41;101121.68;;;17.60;62.08
55460;BME280;41326;45.302;-122.946;2024-03-22T02:40:12;101119.99;;;17.63;62.26
55460;BME280;41326;45.302;-122.946;2024-03-22T02:42:42;101120.14;;;17.66;62.39
55460;BME280;41326;45.302;-122.946;2024-03-22T02:45:12;101118.71;;;17.70;62.95
55460;BME280;41326;45.302;-122.946;2024-03-22T02:47:42;101116.85;;;17.69;63.05
55460;BME280;41326;45.302;-122.946;2024-03-22T02:50:12;101114.98;;;17.69;62.96
55460;BME280;41326;45.302;-122.946;2024-03-22T02:52:42;101114.14;;;17.74;62.82
55460;BME280;41326;45.302;-122.946;2024-03-22T02:55:12;101115.05;;;17.76;62.98
55460;BME280;41326;45.302;-122.946;2024-03-22T02:57:43;101110.88;;;17.73;62.82
55460;BME280;41326;45.302;-122.946;2024-03-22T03:00:13;101113.89;;;17.71;62.93
55460;BME280;41326;45.302;-122.946;2024-03-22T03:02:42;101115.72;;;17.73;62.83
55460;BME280;41326;45.302;-122.946;2024-03-22T03:05:13;101117.11;;;17.76;62.51
55460;BME280;41326;45.302;-122.946;2024-03-22T03:07:43;101116.76;;;17.74;62.67
55460;BME280;41326;45.302;-122.946;2024-03-22T03:10:13;101114.13;;;17.74;62.55
55460;BME280;41326;45.302;-122.946;2024-03-22T03:12:43;101113.84;;;17.76;62.46
55460;BME280;41326;45.302;-122.946;2024-03-22T03:15:14;101117.33;;;17.79;62.41
55460;BME280;41326;45.302;-122.946;2024-03-22T03:17:44;101118.12;;;17.84;62.30
55460;BME280;41326;45.302;-122.946;2024-03-22T03:20:14;101117.81;;;17.87;61.96
55460;BME280;41326;45.302;-122.946;2024-03-22T03:22:44;101117.44;;;17.89;62.16
55460;BME280;41326;45.302;-122.946;2024-03-22T03:25:14;101117.27;;;17.88;62.23
55460;BME280;41326;45.302;-122.946;2024-03-22T03:27:44;101116.52;;;17.89;61.81
55460;BME280;41326;45.302;-122.946;2024-03-22T03:30:14;101115.76;;;17.88;62.28
55460;BME280;41326;45.302;-122.946;2024-03-22T03:32:44;101123.80;;;17.86;62.10
55460;BME280;41326;45.302;-122.946;2024-03-22T03:35:14;101127.43;;;17.86;61.97
55460;BME280;41326;45.302;-122.946;2024-03-22T03:37:44;101120.87;;;17.88;61.98
55460;BME280;41326;45.302;-122.946;2024-03-22T03:40:14;101127.15;;;17.85;61.96
55460;BME280;41326;45.302;-122.946;2024-03-22T03:42:44;101130.29;;;17.85;61.96
55460;BME280;41326;45.302;-122.946;2024-03-22T03:45:15;101124.97;;;17.82;62.00
55460;BME280;41326;45.302;-122.946;2024-03-22T03:47:45;101127.00;;;17.82;61.95
55460;BME280;41326;45.302;-122.946;2024-03-22T03:50:15;101124.83;;;17.81;61.90
55460;BME280;41326;45.302;-122.946;2024-03-22T03:52:45;101126.95;;;17.81;61.85
55460;BME280;41326;45.302;-122.946;2024-03-22T03:55:15;101122.02;;;17.83;61.73
55460;BME280;41326;45.302;-122.946;2024-03-22T03:57:45;101123.04;;;17.88;61.64
55460;BME280;41326;45.302;-122.946;2024-03-22T04:00:15;101122.46;;;17.92;61.27
55460;BME280;41326;45.302;-122.946;2024-03-22T04:02:45;101121.03;;;17.93;61.16
55460;BME280;41326;45.302;-122.946;2024-03-22T04:05:15;101120.72;;;17.98;60.94
55460;BME280;41326;45.302;-122.946;2024-03-22T04:07:48;101118.91;;;17.98;60.92
55460;BME280;41326;45.302;-122.946;2024-03-22T04:10:15;101114.78;;;17.98;60.86
55460;BME280;41326;45.302;-122.946;2024-03-22T04:12:45;101115.58;;;18.00;60.91
55460;BME280;41326;45.302;-122.946;2024-03-22T04:15:16;101119.29;;;18.04;60.75
55460;BME280;41326;45.302;-122.946;2024-03-22T04:17:46;101125.22;;;18.09;60.62
55460;BME280;41326;45.302;-122.946;2024-03-22T04:20:16;101129.26;;;18.12;60.51
55460;BME280;41326;45.302;-122.946;2024-03-22T04:22:47;101129.17;;;18.14;60.42
55460;BME280;41326;45.302;-122.946;2024-03-22T04:25:16;101126.67;;;18.12;60.46
55460;BME280;41326;45.302;-122.946;2024-03-22T04:27:47;101126.99;;;18.13;60.48
55460;BME280;41326;45.302;-122.946;2024-03-22T04:30:17;101128.28;;;18.09;60.54
55460;BME280;41326;45.302;-122.946;2024-03-22T04:32:47;101124.27;;;18.10;60.42
55460;BME280;41326;45.302;-122.946;2024-03-22T04:35:17;101121.10;;;18.11;60.33
55460;BME280;41326;45.302;-122.946;2024-03-22T04:37:47;101119.98;;;18.08;60.32
55460;BME280;41326;45.302;-122.946;2024-03-22T04:40:17;101116.90;;;18.07;60.27
55460;BME280;41326;45.302;-122.946;2024-03-22T04:42:47;101112.61;;;18.07;60.26
55460;BME280;41326;45.302;-122.946;2024-03-22T04:45:17;101116.22;;;18.08;60.36
55460;BME280;41326;45.302;-122.946;2024-03-22T04:47:47;101118.85;;;18.08;60.51
55460;BME280;41326;45.302;-122.946;2024-03-22T04:50:17;101118.03;;;18.05;60.81
55460;BME280;41326;45.302;-122.946;2024-03-22T04:52:47;101120.54;;;18.04;60.93
55460;BME280;41326;45.302;-122.946;2024-03-22T04:55:17;101119.83;;;18.05;60.95
55460;BME280;41326;45.302;-122.946;2024-03-22T04:57:48;101119.69;;;18.03;61.17
55460;BME280;41326;45.302;-122.946;2024-03-22T05:00:18;101116.98;;;18.00;61.23
55460;BME280;41326;45.302;-122.946;2024-03-22T05:02:48;101111.32;;;17.96;61.32
55460;BME280;41326;45.302;-122.946;2024-03-22T05:05:18;101102.57;;;17.97;61.23
55460;BME280;41326;45.302;-122.946;2024-03-22T05:07:48;101099.40;;;17.97;61.13
55460;BME280;41326;45.302;-122.946;2024-03-22T05:10:18;101100.51;;;17.97;61.14
55460;BME280;41326;45.302;-122.946;2024-03-22T05:12:48;101098.54;;;17.98;61.10
55460;BME280;41326;45.302;-122.946;2024-03-22T05:15:18;101097.46;;;17.98;61.11
55460;BME280;41326;45.302;-122.946;2024-03-22T05:17:48;101097.37;;;18.02;60.92
55460;BME280;41326;45.302;-122.946;2024-03-22T05:20:18;101091.59;;;18.06;60.82
55460;BME280;41326;45.302;-122.946;2024-03-22T05:21:36;101086.23;;;18.09;60.71
55460;BME280;41326;45.302;-122.946;2024-03-22T05:22:12;101081.66;;;18.08;60.70
55460;BME280;41326;45.302;-122.946;2024-03-22T05:24:42;101080.20;;;17.99;60.93
55460;BME280;41326;45.302;-122.946;2024-03-22T05:27:12;101076.67;;;17.90;61.13
55460;BME280;41326;45.302;-122.946;2024-03-22T05:29:42;101075.13;;;17.83;61.43
55460;BME280;41326;45.302;-122.946;2024-03-22T05:32:12;101074.07;;;17.80;61.59
55460;BME280;41326;45.302;-122.946;2024-03-22T05:34:42;101068.84;;;17.80;61.64
55460;BME280;41326;45.302;-122.946;2024-03-22T05:37:12;101064.48;;;17.80;61.65
55460;BME280;41326;45.302;-122.946;2024-03-22T05:39:43;101063.18;;;17.78;61.74
55460;BME280;41326;45.302;-122.946;2024-03-22T05:42:13;101066.48;;;17.77;61.78
55460;BME280;41326;45.302;-122.946;2024-03-22T05:44:44;101068.76;;;17.76;61.73
55460;BME280;41326;45.302;-122.946;2024-03-22T05:47:13;101066.78;;;17.71;61.87
55460;BME280;41326;45.302;-122.946;2024-03-22T05:49:44;101067.60;;;17.66;62.05
55460;BME280;41326;45.302;-122.946;2024-03-22T05:52:14;101071.59;;;17.62;62.24
55460;BME280;41326;45.302;-122.946;2024-03-22T05:54:44;101072.36;;;17.65;62.15
55460;BME280;41326;45.302;-122.946;2024-03-22T05:57:14;101070.30;;;17.65;62.19
55460;BME280;41326;45.302;-122.946;2024-03-22T05:59:44;101075.30;;;17.69;62.13
55460;BME280;41326;45.302;-122.946;2024-03-22T06:02:14;101077.00;;;17.69;62.13
55460;BME280;41326;45.302;-122.946;2024-03-22T06:04:44;101075.22;;;17.68;62.15
55460;BME280;41326;45.302;-122.946;2024-03-22T06:07:14;101073.55;;;17.67;62.18
55460;BME280;41326;45.302;-122.946;2024-03-22T06:09:44;101068.21;;;17.63;62.25
55460;BME280;41326;45.302;-122.946;2024-03-22T06:12:15;101065.12;;;17.62;62.37
55460;BME280;41326;45.302;-122.946;2024-03-22T06:14:44;101063.87;;;17.59;62.59
55460;BME280;41326;45.302;-122.946;2024-03-22T06:17:15;101072.05;;;17.66;62.39
55460;BME280;41326;45.302;-122.946;2024-03-22T06:19:45;101071.02;;;17.69;62.29
55460;BME280;41326;45.302;-122.946;2024-03-22T06:22:15;101065.41;;;17.68;62.30
55460;BME280;41326;45.302;-122.946;2024-03-22T06:24:46;101065.09;;;17.70;62.20
55460;BME280;41326;45.302;-122.946;2024-03-22T06:27:15;101062.43;;;17.64;62.31
55460;BME280;41326;45.302;-122.946;2024-03-22T06:29:45;101056.40;;;17.60;62.46
55460;BME280;41326;45.302;-122.946;2024-03-22T06:32:16;101051.35;;;17.60;62.51
55460;BME280;41326;45.302;-122.946;2024-03-22T06:34:46;101047.48;;;17.63;62.46
55460;BME280;41326;45.302;-122.946;2024-03-22T06:37:16;101038.68;;;17.61;62.52
55460;BME280;41326;45.302;-122.946;2024-03-22T06:39:46;101034.04;;;17.59;62.56
55460;BME280;41326;45.302;-122.946;2024-03-22T06:42:16;101030.48;;;17.57;62.66
55460;BME280;41326;45.302;-122.946;2024-03-22T06:44:46;101029.24;;;17.57;62.56
55460;BME280;41326;45.302;-122.946;2024-03-22T06:47:16;101025.51;;;17.54;62.61
55460;BME280;41326;45.302;-122.946;2024-03-22T06:49:46;101022.74;;;17.55;62.60
55460;BME280;41326;45.302;-122.946;2024-03-22T06:52:16;101016.99;;;17.52;62.68
55460;BME280;41326;45.302;-122.946;2024-03-22T06:54:46;101010.07;;;17.51;62.72
55460;BME280;41326;45.302;-122.946;2024-03-22T06:57:17;101001.54;;;17.47;62.82
55460;BME280;41326;45.302;-122.946;2024-03-22T06:59:47;100991.68;;;17.45;62.94
55460;BME280;41326;45.302;-122.946;2024-03-22T07:02:17;100983.98;;;17.46;62.92
55460;BME280;41326;45.302;-122.946;2024-03-22T07:04:47;100977.80;;;17.49;62.71
55460;BME280;41326;45.302;-122.946;2024-03-22T07:07:17;100980.14;;;17.47;62.68
55460;BME280;41326;45.302;-122.946;2024-03-22T07:09:47;100986.32;;;17.47;62.69
55460;BME280;41326;45.302;-122.946;2024-03-22T07:12:17;100984.99;;;17.44;62.79
55460;BME280;41326;45.302;-122.946;2024-03-22T07:14:47;100978.68;;;17.46;62.79
55460;BME280;41326;45.302;-122.946;2024-03-22T07:17:17;100971.37;;;17.48;62.71
55460;BME280;41326;45.302;-122.946;2024-03-22T07:19:47;100970.00;;;17.49;62.71
55460;BME280;41326;45.302;-122.946;2024-03-22T07:22:17;100971.98;;;17.48;62.81
55460;BME280;41326;45.302;-122.946;2024-03-22T07:24:48;100969.84;;;17.49;62.75
55460;BME280;41326;45.302;-122.946;2024-03-22T07:27:18;100972.45;;;17.43;62.93
55460;BME280;41326;45.302;-122.946;2024-03-22T07:29:48;100968.05;;;17.44;62.92
55460;BME280;41326;45.302;-122.946;2024-03-22T07:32:18;100967.79;;;17.42;62.94
55460;BME280;41326;45.302;-122.946;2024-03-22T07:34:49;100970.82;;;17.39;63.08
55460;BME280;41326;45.302;-122.946;2024-03-22T07:37:19;100975.92;;;17.38;63.13
55460;BME280;41326;45.302;-122.946;2024-03-22T07:39:49;100979.63;;;17.37;63.16
55460;BME280;41326;45.302;-122.946;2024-03-22T07:42:19;100975.99;;;17.38;63.08
55460;BME280;41326;45.302;-122.946;2024-03-22T07:44:49;100963.16;;;17.38;63.02
55460;BME280;41326;45.302;-122.946;2024-03-22T07:47:20;100958.39;;;17.36;62.98
55460;BME280;41326;45.302;-122.946;2024-03-22T07:49:50;100954.27;;;17.34;63.05
55460;BME280;41326;45.302;-122.946;2024-03-22T07:52:20;100956.02;;;17.35;63.05
55460;BME280;41326;45.302;-122.946;2024-03-22T07:54:50;100962.46;;;17.39;62.96
55460;BME280;41326;45.302;-122.946;2024-03-22T07:57:20;100962.48;;;17.37;63.02
55460;BME280;41326;45.302;-122.946;2024-03-22T07:59:50;100964.04;;;17.37;63.01
55460;BME280;41326;45.302;-122.946;2024-03-22T08:02:20;100967.22;;;17.38;62.99
55460;BME280;41326;45.302;-122.946;2024-03-22T08:04:50;100965.45;;;17.39;62.82
55460;BME280;41326;45.302;-122.946;2024-03-22T08:07:20;100958.84;;;17.36;62.83
55460;BME280;41326;45.302;-122.946;2024-03-22T08:09:50;100950.98;;;17.31;63.02
55460;BME280;41326;45.302;-122.946;2024-03-22T08:12:21;100951.11;;;17.33;63.01
55460;BME280;41326;45.302;-122.946;2024-03-22T08:14:51;100952.42;;;17.32;63.07
55460;BME280;41326;45.302;-122.946;2024-03-22T08:17:21;100949.37;;;17.36;62.95
55460;BME280;41326;45.302;-122.946;2024-03-22T08:19:51;100943.72;;;17.40;62.80
55460;BME280;41326;45.302;-122.946;2024-03-22T08:22:21;100942.49;;;17.38;62.81
55460;BME280;41326;45.302;-122.946;2024-03-22T08:24:52;100938.08;;;17.37;62.76
55460;BME280;41326;45.302;-122.946;2024-03-22T08:27:21;100938.17;;;17.34;62.77
55460;BME280;41326;45.302;-122.946;2024-03-22T08:29:51;100931.60;;;17.29;62.93
55460;BME280;41326;45.302;-122.946;2024-03-22T08:32:21;100922.41;;;17.27;63.01
55460;BME280;41326;45.302;-122.946;2024-03-22T08:34:51;100919.22;;;17.26;63.09
55460;BME280;41326;45.302;-122.946;2024-03-22T08:37:21;100918.85;;;17.28;63.04
55460;BME280;41326;45.302;-122.946;2024-03-22T08:39:52;100914.69;;;17.26;63.11
55460;BME280;41326;45.302;-122.946;2024-03-22T08:42:22;100911.47;;;17.27;63.12
55460;BME280;41326;45.302;-122.946;2024-03-22T08:44:52;100907.90;;;17.25;63.02
55460;BME280;41326;45.302;-122.946;2024-03-22T08:47:22;100900.75;;;17.22;63.05
55460;BME280;41326;45.302;-122.946;2024-03-22T08:49:52;100886.02;;;17.20;63.08
55460;BME280;41326;45.302;-122.946;2024-03-22T08:52:22;100876.15;;;17.20;63.08
55460;BME280;41326;45.302;-122.946;2024-03-22T08:54:53;100875.92;;;17.18;63.08
55460;BME280;41326;45.302;-122.946;2024-03-22T08:57:22;100883.78;;;17.16;63.12
55460;BME280;41326;45.302;-122.946;2024-03-22T08:59:52;100894.63;;;17.17;63.12
55460;BME280;41326;45.302;-122.946;2024-03-22T09:02:22;100895.86;;;17.15;63.13
55460;BME280;41326;45.302;-122.946;2024-03-22T09:04:53;100885.24;;;17.17;62.97
55460;BME280;41326;45.302;-122.946;2024-03-22T09:07:23;100870.32;;;17.17;62.82
55460;BME280;41326;45.302;-122.946;2024-03-22T09:09:53;100866.41;;;17.13;62.97
55460;BME280;41326;45.302;-122.946;2024-03-22T09:12:23;100860.81;;;17.14;62.96
55460;BME280;41326;45.302;-122.946;2024-03-22T09:14:53;100856.22;;;17.17;62.82
55460;BME280;41326;45.302;-122.946;2024-03-22T09:17:23;100849.79;;;17.20;62.69
55460;BME280;41326;45.302;-122.946;2024-03-22T09:19:53;100843.30;;;17.22;62.62
55460;BME280;41326;45.302;-122.946;2024-03-22T09:22:23;100837.97;;;17.19;62.73
55460;BME280;41326;45.302;-122.946;2024-03-22T09:24:54;100832.77;;;17.18;62.68
55460;BME280;41326;45.302;-122.946;2024-03-22T09:27:23;100828.43;;;17.13;62.77
55460;BME280;41326;45.302;-122.946;2024-03-22T09:29:54;100821.40;;;17.10;62.92
55460;BME280;41326;45.302;-122.946;2024-03-22T09:32:24;100820.44;;;17.07;63.03
55460;BME280;41326;45.302;-122.946;2024-03-22T09:34:54;100820.59;;;17.06;63.07
55460;BME280;41326;45.302;-122.946;2024-03-22T09:37:24;100818.05;;;17.05;63.11
55460;BME280;41326;45.302;-122.946;2024-03-22T09:39:54;100816.55;;;17.05;63.10
55460;BME280;41326;45.302;-122.946;2024-03-22T09:42:24;100819.65;;;17.04;63.11
55460;BME280;41326;45.302;-122.946;2024-03-22T09:44:54;100816.21;;;17.03;63.05
55460;BME280;41326;45.302;-122.946;2024-03-22T09:47:25;100811.10;;;17.00;63.10
55460;BME280;41326;45.302;-122.946;2024-03-22T09:49:56;100805.44;;;16.98;63.15
55460;BME280;41326;45.302;-122.946;2024-03-22T09:52:25;100802.92;;;17.00;63.08
55460;BME280;41326;45.302;-122.946;2024-03-22T09:54:55;100799.38;;;16.98;63.17
55460;BME280;41326;45.302;-122.946;2024-03-22T09:57:25;100794.31;;;16.96;63.29
55460;BME280;41326;45.302;-122.946;2024-03-22T09:59:55;100791.55;;;16.96;63.30
55460;BME280;41326;45.302;-122.946;2024-03-22T10:02:26;100789.53;;;16.96;63.31
55460;BME280;41326;45.302;-122.946;2024-03-22T10:04:57;100787.65;;;16.95;63.26
55460;BME280;41326;45.302;-122.946;2024-03-22T10:07:26;100788.83;;;16.98;63.15
55460;BME280;41326;45.302;-122.946;2024-03-22T10:09:58;100790.93;;;16.97;63.15
55460;BME280;41326;45.302;-122.946;2024-03-22T10:12:26;100789.38;;;16.99;63.13
55460;BME280;41326;45.302;-122.946;2024-03-22T10:14:56;100787.74;;;17.01;63.05
55460;BME280;41326;45.302;-122.946;2024-03-22T10:17:28;100788.30;;;17.06;62.89
55460;BME280;41326;45.302;-122.946;2024-03-22T10:19:56;100789.24;;;17.08;62.77
55460;BME280;41326;45.302;-122.946;2024-03-22T10:22:26;100780.24;;;17.08;62.76
55460;BME280;41326;45.302;-122.946;2024-03-22T10:24:57;100771.24;;;17.07;62.67
55460;BME280;41326;45.302;-122.946;2024-03-22T10:27:27;100760.46;;;17.02;62.74
55460;BME280;41326;45.302;-122.946;2024-03-22T10:29:57;100757.37;;;17.00;62.85
55460;BME280;41326;45.302;-122.946;2024-03-22T10:32:27;100750.69;;;16.98;62.96
55460;BME280;41326;45.302;-122.946;2024-03-22T10:34:57;100746.06;;;16.95;63.04
55460;BME280;41326;45.302;-122.946;2024-03-22T10:37:27;100739.49;;;16.93;63.15
55460;BME280;41326;45.302;-122.946;2024-03-22T10:39:58;100731.03;;;16.91;63.22
55460;BME280;41326;45.302;-122.946;2024-03-22T10:42:27;100727.41;;;16.89;63.26
55460;BME280;41326;45.302;-122.946;2024-03-22T10:44:57;100717.15;;;16.91;63.10
55460;BME280;41326;45.302;-122.946;2024-03-22T10:47:30;100709.84;;;16.89;63.09
55460;BME280;41326;45.302;-122.946;2024-03-22T10:50:04;100701.35;;;16.91;63.03
55460;BME280;41326;45.302;-122.946;2024-03-22T10:52:28;100700.38;;;16.90;63.06
55460;BME280;41326;45.302;-122.946;2024-03-22T10:54:58;100693.68;;;16.90;63.04
55460;BME280;41326;45.302;-122.946;2024-03-22T10:57:28;100693.27;;;16.87;63.13
55460;BME280;41326;45.302;-122.946;2024-03-22T10:59:58;100690.36;;;16.88;63.09
55460;BME280;41326;45.302;-122.946;2024-03-22T11:02:28;100686.43;;;16.86;63.15
55460;BME280;41326;45.302;-122.946;2024-03-22T11:04:58;100685.28;;;16.87;63.02
55460;BME280;41326;45.302;-122.946;2024-03-22T11:07:30;100682.37;;;16.87;62.95
55460;BME280;41326;45.302;-122.946;2024-03-22T11:10:00;100674.96;;;16.85;63.08
55460;BME280;41326;45.302;-122.946;2024-03-22T11:12:29;100664.40;;;16.84;63.09
55460;BME280;41326;45.302;-122.946;2024-03-22T11:14:58;100653.48;;;16.84;63.09
55460;BME280;41326;45.302;-122.946;2024-03-22T11:17:28;100656.39;;;16.87;62.98
55460;BME280;41326;45.302;-122.946;2024-03-22T11:19:58;100662.36;;;16.91;62.79
55460;BME280;41326;45.302;-122.946;2024-03-22T11:22:28;100661.71;;;16.88;62.89
55460;BME280;41326;45.302;-122.946;2024-03-22T11:24:59;100645.02;;;16.86;62.85
55460;BME280;41326;45.302;-122.946;2024-03-22T11:27:29;100630.53;;;16.85;62.83
55460;BME280;41326;45.302;-122.946;2024-03-22T11:29:59;100653.59;;;16.82;62.93
55460;BME280;41326;45.302;-122.946;2024-03-22T11:32:29;100668.01;;;16.82;62.98
55460;BME280;41326;45.302;-122.946;2024-03-22T11:34:59;100676.00;;;16.85;62.89
55460;BME280;41326;45.302;-122.946;2024-03-22T11:37:29;100680.68;;;16.84;62.93
55460;BME280;41326;45.302;-122.946;2024-03-22T11:39:59;100680.59;;;16.85;62.89
55460;BME280;41326;45.302;-122.946;2024-03-22T11:42:29;100677.43;;;16.82;62.93
55460;BME280;41326;45.302;-122.946;2024-03-22T11:45:00;100670.33;;;16.82;62.87
55460;BME280;41326;45.302;-122.946;2024-03-22T11:47:29;100665.54;;;16.80;62.87
55460;BME280;41326;45.302;-122.946;2024-03-22T11:50:01;100670.22;;;16.78;62.92
55460;BME280;41326;45.302;-122.946;2024-03-22T11:52:30;100669.06;;;16.75;63.06
55460;BME280;41326;45.302;-122.946;2024-03-22T11:55:00;100665.09;;;16.74;63.11
55460;BME280;41326;45.302;-122.946;2024-03-22T11:57:30;100657.67;;;16.74;63.09
55460;BME280;41326;45.302;-122.946;2024-03-22T12:00:01;100654.53;;;16.77;62.98
55460;BME280;41326;45.302;-122.946;2024-03-22T12:02:32;100643.13;;;16.79;62.92
55460;BME280;41326;45.302;-122.946;2024-03-22T12:05:01;100618.75;;;16.82;62.74
55460;BME280;41326;45.302;-122.946;2024-03-22T12:07:30;100609.22;;;16.82;62.69
55460;BME280;41326;45.302;-122.946;2024-03-22T12:10:00;100611.98;;;16.80;62.72
55460;BME280;41326;45.302;-122.946;2024-03-22T12:12:31;100616.86;;;16.81;62.73
55460;BME280;41326;45.302;-122.946;2024-03-22T12:15:00;100630.73;;;16.84;62.62
55460;BME280;41326;45.302;-122.946;2024-03-22T12:17:31;100605.96;;;16.86;62.53
55460;BME280;41326;45.302;-122.946;2024-03-22T12:20:01;100591.79;;;16.90;62.36
55460;BME280;41326;45.302;-122.946;2024-03-22T12:22:31;100588.47;;;16.92;62.28
55460;BME280;41326;45.302;-122.946;2024-03-22T12:25:01;100604.92;;;16.93;62.17
55460;BME280;41326;45.302;-122.946;2024-03-22T12:27:31;100615.40;;;16.91;62.13
55460;BME280;41326;45.302;-122.946;2024-03-22T12:30:01;100658.41;;;16.90;62.19